< Typhoon 196532 1966 Season Typhoon 196602 >
Typhoon 196601 (HESTER)
General InformationTrack Information on Google Maps || Disaster Info.ResourceGoogle EarthGE AnimationAtom FeedGeoJSON
Detalied Best Track (Time Zone = UTC)
Year Month Day Hour Lat. Long. Pressure (hPa) Wind (kt) Class Image Chart
1966 4 6 06 8.6 150.6 1000 0 2 -- Chart
1966 4 6 12 8.6 149.5 1000 0 2 -- Chart
1966 4 6 18 8.6 148.1 1000 0 2 -- Chart
1966 4 7 00 8.8 146.2 1000 0 2 -- Chart
1966 4 7 06 9.2 144.5 1000 0 2 -- Chart
1966 4 7 12 9.5 142.7 1000 0 2 -- Chart
1966 4 7 18 9.7 140.8 1000 0 2 -- Chart
1966 4 8 00 9.9 139.5 1000 0 2 -- Chart
1966 4 8 06 10.4 138.3 998 0 9 -- Chart
1966 4 8 12 10.9 137.0 998 0 9 -- Chart
1966 4 8 18 11.2 135.5 996 0 9 -- Chart
1966 4 9 00 11.6 134.3 996 0 9 -- Chart
1966 4 9 06 12.7 133.3 994 0 9 -- Chart
1966 4 9 12 13.5 131.8 992 0 9 -- Chart
1966 4 9 18 13.7 130.8 990 0 9 -- Chart
1966 4 10 00 14.0 130.0 988 0 9 -- Chart
1966 4 10 06 14.4 129.4 988 0 9 -- Chart
1966 4 10 12 14.8 128.5 988 0 9 -- Chart
1966 4 10 18 15.3 127.7 988 0 9 -- Chart
1966 4 11 00 15.7 126.5 988 0 9 -- Chart
1966 4 11 06 16.0 126.5 988 0 9 -- Chart
1966 4 11 12 16.5 126.3 988 0 9 -- Chart
1966 4 11 18 17.3 125.8 988 0 9 -- Chart
1966 4 12 00 17.8 125.5 988 0 9 -- Chart
1966 4 12 06 18.0 125.4 988 0 9 -- Chart
1966 4 12 12 18.1 125.2 990 0 9 -- Chart
1966 4 12 18 18.4 125.4 990 0 9 -- Chart
1966 4 13 00 18.8 125.4 990 0 9 -- Chart
1966 4 13 06 19.4 125.5 994 0 9 -- Chart
1966 4 13 12 19.5 125.5 994 0 9 -- Chart
1966 4 13 18 20.0 125.5 994 0 9 -- Chart
1966 4 14 00 20.5 125.5 998 0 9 -- Chart
1966 4 14 06 20.8 125.5 998 0 9 -- Chart
1966 4 14 12 21.5 125.8 998 0 9 -- Chart
1966 4 14 18 22.4 127.3 1000 0 9 -- Chart
1966 4 15 00 23.5 129.0 1000 0 2 -- Chart
1966 4 15 06 24.5 131.2 1000 0 2 -- Chart
1966 4 15 12 25.5 134.0 1004 0 2 -- Chart
1966 4 15 18 26.5 136.5 1006 0 2 -- Chart
Japan Meteorological Agency Best Track Data | Correction Date : 1989-06-01
< Typhoon 196532 1966 Season Typhoon 196602 >

Help